createdAt,value
2018-09-11T00:01:10.069Z,66.85
2018-09-11T00:03:38.116Z,67.51
2018-09-11T00:06:06.376Z,67.96
2018-09-11T00:08:34.499Z,68.35
2018-09-11T00:11:02.599Z,68.04
2018-09-11T00:13:30.691Z,68.81
2018-09-11T00:15:58.771Z,67.75
2018-09-11T00:18:26.968Z,67.68
2018-09-11T00:20:55.040Z,67.64
2018-09-11T00:23:23.128Z,68.96
2018-09-11T00:25:51.200Z,69.14
2018-09-11T00:28:19.288Z,71.31
2018-09-11T00:30:48.339Z,71.17
2018-09-11T00:33:16.431Z,71.00
2018-09-11T00:35:44.500Z,70.17
2018-09-11T00:38:12.592Z,71.19
2018-09-11T00:40:41.512Z,71.76
2018-09-11T00:43:09.580Z,70.57
2018-09-11T00:45:37.650Z,69.91
2018-09-11T00:48:05.782Z,71.09
2018-09-11T00:50:33.856Z,71.51
2018-09-11T00:53:01.951Z,71.49
2018-09-11T00:55:30.032Z,71.62
2018-09-11T00:57:58.147Z,72.37
2018-09-11T01:00:26.237Z,72.50
2018-09-11T01:02:54.335Z,72.68
2018-09-11T01:05:22.581Z,71.90
2018-09-11T01:07:50.751Z,72.40
2018-09-11T01:10:18.941Z,72.11
2018-09-11T01:12:46.964Z,72.80
2018-09-11T01:15:15.057Z,72.90
2018-09-11T01:17:43.146Z,73.27
2018-09-11T01:20:11.255Z,72.98
2018-09-11T01:22:39.311Z,73.00
2018-09-11T01:25:07.463Z,73.12
2018-09-11T01:27:35.544Z,73.30
2018-09-11T01:30:03.648Z,73.35
2018-09-11T01:32:31.731Z,74.24
2018-09-11T01:34:59.836Z,74.27
2018-09-11T01:37:27.934Z,74.44
2018-09-11T01:39:56.023Z,74.76
2018-09-11T01:42:24.117Z,74.16
2018-09-11T01:44:52.215Z,75.15
2018-09-11T01:47:20.280Z,75.86
2018-09-11T01:49:48.360Z,76.69
2018-09-11T01:52:16.427Z,76.67
2018-09-11T01:54:44.625Z,76.16
2018-09-11T01:57:12.696Z,75.45
2018-09-11T01:59:40.783Z,77.14
2018-09-11T02:02:08.870Z,77.29
2018-09-11T02:04:36.983Z,77.30
2018-09-11T02:07:05.151Z,77.55
2018-09-11T02:09:33.228Z,78.09
2018-09-11T02:12:01.304Z,78.23
2018-09-11T02:14:29.413Z,78.25
2018-09-11T02:16:57.506Z,78.92
2018-09-11T02:19:25.593Z,78.35
2018-09-11T02:21:53.680Z,77.80
2018-09-11T02:24:21.763Z,78.41
2018-09-11T02:26:49.866Z,78.30
2018-09-11T02:29:17.963Z,78.03
2018-09-11T02:31:46.214Z,78.11
2018-09-11T02:34:14.306Z,77.78
2018-09-11T02:36:42.408Z,77.87
2018-09-11T02:39:12.178Z,78.57
2018-09-11T02:41:40.332Z,78.73
2018-09-11T02:44:09.068Z,78.97
2018-09-11T02:46:37.183Z,78.76
2018-09-11T02:49:05.325Z,79.66
2018-09-11T02:51:33.967Z,79.14
2018-09-11T02:54:02.359Z,79.34
2018-09-11T02:56:30.453Z,78.86
2018-09-11T02:58:58.569Z,78.91
2018-09-11T03:01:26.681Z,79.83
2018-09-11T03:03:54.874Z,79.95
2018-09-11T03:06:22.974Z,80.45
2018-09-11T03:08:51.058Z,80.95
2018-09-11T03:11:19.212Z,80.60
2018-09-11T03:13:48.171Z,80.94
2018-09-11T03:16:16.263Z,80.71
2018-09-11T03:18:44.368Z,81.42
2018-09-11T03:21:12.480Z,81.64
2018-09-11T03:23:40.582Z,81.09
2018-09-11T03:26:08.701Z,81.33
2018-09-11T03:28:36.793Z,81.18
2018-09-11T03:31:05.496Z,82.05
2018-09-11T03:33:33.598Z,83.00
2018-09-11T03:36:01.729Z,84.52
2018-09-11T03:38:29.815Z,84.32
2018-09-11T03:40:57.919Z,84.34
2018-09-11T03:43:26.006Z,84.87
2018-09-11T03:45:54.078Z,84.67
2018-09-11T03:48:22.390Z,84.86
2018-09-11T03:50:51.499Z,84.69
2018-09-11T03:53:19.575Z,84.69
2018-09-11T03:55:48.054Z,84.38
2018-09-11T03:58:17.068Z,85.10
2018-09-11T04:00:45.191Z,85.07
2018-09-11T04:03:13.343Z,84.57
2018-09-11T04:05:41.443Z,85.12
2018-09-11T04:08:09.563Z,84.57
2018-09-11T04:10:37.687Z,84.88
2018-09-11T04:13:05.826Z,85.15
2018-09-11T04:15:33.935Z,85.05
2018-09-11T04:18:02.039Z,84.97
2018-09-11T04:20:30.136Z,84.79
2018-09-11T04:22:58.256Z,84.29
2018-09-11T04:25:26.357Z,84.74
2018-09-11T04:27:54.459Z,85.08
2018-09-11T04:30:22.717Z,85.76
2018-09-11T04:32:50.807Z,86.32
2018-09-11T04:35:18.900Z,86.92
2018-09-11T04:37:47.006Z,87.04
2018-09-11T04:40:15.104Z,87.77
2018-09-11T04:42:43.253Z,87.78
2018-09-11T04:45:11.395Z,88.47
2018-09-11T04:47:39.499Z,88.66
2018-09-11T04:50:07.664Z,88.77
2018-09-11T04:52:35.779Z,89.13
2018-09-11T04:55:03.892Z,89.60
2018-09-11T04:57:31.995Z,90.01
2018-09-11T05:00:00.084Z,91.03
2018-09-11T05:02:28.189Z,91.05
2018-09-11T05:04:56.300Z,91.17
2018-09-11T05:07:24.719Z,91.12
2018-09-11T05:09:52.830Z,91.03
2018-09-11T05:12:20.963Z,90.67
2018-09-11T05:14:49.067Z,90.21
2018-09-11T05:17:17.189Z,89.27
2018-09-11T05:19:45.285Z,89.53
2018-09-11T05:22:13.371Z,89.10
2018-09-11T05:24:41.485Z,88.18
2018-09-11T05:27:09.582Z,88.05
2018-09-11T05:29:37.703Z,87.61
2018-09-11T05:32:05.819Z,86.82
2018-09-11T05:34:33.924Z,87.26
2018-09-11T05:37:02.030Z,87.51
2018-09-11T05:39:30.135Z,86.89
2018-09-11T05:41:58.237Z,87.09
2018-09-11T05:44:26.492Z,86.97
2018-09-11T05:46:54.595Z,86.26
2018-09-11T05:49:22.706Z,86.22
2018-09-11T05:51:50.812Z,85.88
2018-09-11T05:54:18.905Z,85.63
2018-09-11T05:56:47.008Z,84.94
2018-09-11T05:59:15.121Z,84.86
2018-09-11T06:01:43.242Z,82.99
2018-09-11T06:04:11.359Z,79.12
2018-09-11T06:06:39.439Z,76.48
2018-09-11T06:09:10.412Z,76.81
2018-09-11T06:11:38.519Z,77.01
2018-09-11T06:14:06.683Z,77.30
2018-09-11T06:16:34.816Z,77.31
2018-09-11T06:19:02.964Z,78.07
2018-09-11T06:21:31.077Z,78.68
2018-09-11T06:23:59.187Z,78.57
2018-09-11T06:26:27.779Z,79.23
2018-09-11T06:28:56.328Z,79.08
2018-09-11T06:31:24.439Z,78.72
2018-09-11T06:33:52.551Z,77.79
2018-09-11T06:36:20.668Z,77.43
2018-09-11T06:38:48.787Z,76.46
2018-09-11T06:41:16.948Z,76.23
2018-09-11T06:43:45.017Z,76.02
2018-09-11T06:46:13.134Z,75.10
2018-09-11T06:48:41.220Z,74.55
2018-09-11T06:51:09.334Z,74.77
2018-09-11T06:53:37.488Z,74.12
2018-09-11T06:56:05.706Z,74.18
2018-09-11T06:58:33.805Z,72.40
2018-09-11T07:01:01.911Z,71.76
2018-09-11T07:03:30.028Z,71.65
2018-09-11T07:05:58.874Z,70.55
2018-09-11T07:08:27.024Z,68.66
2018-09-11T07:10:55.097Z,67.30
2018-09-11T07:13:23.199Z,67.73
2018-09-11T07:15:51.306Z,67.44
2018-09-11T07:18:19.416Z,67.41
2018-09-11T07:20:47.524Z,66.72
2018-09-11T07:23:15.712Z,66.09
2018-09-11T07:25:43.869Z,66.00
2018-09-11T07:28:11.960Z,65.93
2018-09-11T07:30:40.076Z,66.71
2018-09-11T07:33:08.223Z,65.68
2018-09-11T07:35:36.334Z,65.78
2018-09-11T07:38:04.423Z,65.75
2018-09-11T07:40:32.507Z,65.17
2018-09-11T07:43:00.947Z,65.17
2018-09-11T07:45:29.958Z,64.38
2018-09-11T07:47:58.075Z,63.57
2018-09-11T07:50:26.146Z,63.08
2018-09-11T07:52:54.286Z,62.46
2018-09-11T07:55:22.318Z,62.08
2018-09-11T07:57:50.595Z,61.94
2018-09-11T08:00:18.668Z,60.00
2018-09-11T08:02:46.771Z,59.59
2018-09-11T08:05:14.887Z,60.33
2018-09-11T08:07:42.966Z,59.11
2018-09-11T08:10:11.091Z,57.42
2018-09-11T08:12:39.173Z,58.54
2018-09-11T08:15:07.708Z,57.91
2018-09-11T08:17:35.815Z,57.27
2018-09-11T08:20:03.883Z,56.10
2018-09-11T08:22:31.965Z,56.03
2018-09-11T08:25:00.043Z,56.37
2018-09-11T08:27:28.476Z,55.33
2018-09-11T08:29:56.969Z,54.77
2018-09-11T08:32:25.068Z,53.37
2018-09-11T08:34:53.139Z,53.32
2018-09-11T08:37:21.252Z,52.96
2018-09-11T08:39:49.351Z,52.53
2018-09-11T08:42:17.459Z,53.99
2018-09-11T08:44:45.582Z,53.01
2018-09-11T08:47:13.689Z,52.33
2018-09-11T08:49:41.795Z,52.53
2018-09-11T08:52:09.969Z,53.36
2018-09-11T08:54:38.003Z,53.06
2018-09-11T08:57:06.212Z,52.73
2018-09-11T08:59:34.308Z,51.36
2018-09-11T09:02:02.443Z,52.21
2018-09-11T09:04:30.549Z,52.37
2018-09-11T09:06:58.651Z,51.24
2018-09-11T09:09:26.745Z,51.77
2018-09-11T09:11:54.861Z,50.17
2018-09-11T09:14:22.964Z,50.49
2018-09-11T09:16:51.064Z,49.18
2018-09-11T09:19:19.178Z,48.50
2018-09-11T09:21:47.284Z,48.56
2018-09-11T09:24:15.402Z,48.81
2018-09-11T09:26:43.508Z,47.95
2018-09-11T09:29:11.615Z,48.45
2018-09-11T09:31:39.725Z,48.44
2018-09-11T09:34:07.902Z,48.43
2018-09-11T09:36:36.089Z,48.31
2018-09-11T09:39:04.769Z,48.49
2018-09-11T09:41:33.236Z,48.06
2018-09-11T09:44:01.351Z,48.36
2018-09-11T09:46:29.387Z,46.97
2018-09-11T09:48:57.473Z,45.58
2018-09-11T09:51:25.578Z,43.96
2018-09-11T09:53:53.675Z,43.53
2018-09-11T09:56:21.743Z,43.24
2018-09-11T09:58:49.789Z,44.12
2018-09-11T10:01:23.188Z,43.68
2018-09-11T10:03:51.286Z,42.95
2018-09-11T10:06:19.376Z,42.87
2018-09-11T10:08:47.457Z,41.86
2018-09-11T10:11:15.540Z,41.74
2018-09-11T10:13:43.616Z,41.96
2018-09-11T10:16:11.688Z,40.91
2018-09-11T10:18:39.763Z,41.71
2018-09-11T10:21:07.897Z,41.35
2018-09-11T10:23:36.027Z,42.29
2018-09-11T10:26:04.622Z,42.57
2018-09-11T10:28:32.694Z,42.37
2018-09-11T10:31:00.899Z,41.60
2018-09-11T10:33:29.006Z,41.17
2018-09-11T10:35:57.089Z,40.46
2018-09-11T10:38:25.210Z,40.29
2018-09-11T10:41:00.398Z,40.42
2018-09-11T10:43:28.514Z,40.12
2018-09-11T10:45:56.639Z,40.32
2018-09-11T10:48:24.728Z,39.69
2018-09-11T10:50:52.904Z,40.38
2018-09-11T10:53:21.007Z,38.38
2018-09-11T10:55:49.169Z,38.96
2018-09-11T10:58:17.241Z,38.91
2018-09-11T11:00:45.348Z,38.88
2018-09-11T11:03:13.453Z,38.39
2018-09-11T11:05:41.560Z,38.58
2018-09-11T11:08:09.668Z,38.26
2018-09-11T11:10:37.790Z,38.11
2018-09-11T11:13:06.364Z,38.66
2018-09-11T11:15:34.467Z,37.88
2018-09-11T11:18:02.584Z,37.78
2018-09-11T11:20:30.775Z,37.88
2018-09-11T11:22:59.050Z,38.05
2018-09-11T11:25:27.138Z,38.99
2018-09-11T11:27:55.232Z,36.91
2018-09-11T11:30:23.358Z,36.51
2018-09-11T11:32:51.554Z,37.41
2018-09-11T11:35:19.664Z,37.04
2018-09-11T11:37:48.006Z,36.98
2018-09-11T11:40:16.101Z,36.84
2018-09-11T11:42:44.284Z,36.82
2018-09-11T11:45:12.298Z,37.13
2018-09-11T11:47:40.388Z,37.33
2018-09-11T11:50:08.479Z,37.80
2018-09-11T11:52:37.364Z,34.62
2018-09-11T11:55:05.576Z,34.21
2018-09-11T11:57:33.620Z,36.54
2018-09-11T12:00:01.754Z,33.78
2018-09-11T12:02:29.854Z,33.39
2018-09-11T12:04:58.191Z,34.33
2018-09-11T12:07:26.552Z,33.57
2018-09-11T12:09:54.652Z,33.95
2018-09-11T12:12:22.763Z,32.16
2018-09-11T12:14:50.862Z,33.17
2018-09-11T12:17:19.009Z,33.73
2018-09-11T12:19:47.104Z,32.62
2018-09-11T12:22:15.220Z,33.96
2018-09-11T12:24:43.325Z,34.64
2018-09-11T12:27:11.408Z,34.85
2018-09-11T12:29:39.472Z,35.69
2018-09-11T12:32:07.580Z,34.26
2018-09-11T12:34:35.650Z,35.13
2018-09-11T12:37:03.754Z,33.74
2018-09-11T12:39:31.830Z,33.83
2018-09-11T12:41:59.951Z,34.42
2018-09-11T12:44:28.047Z,33.93
2018-09-11T12:46:56.418Z,34.17
2018-09-11T12:49:24.260Z,33.77
2018-09-11T12:51:52.382Z,32.98
2018-09-11T12:54:20.494Z,33.52
2018-09-11T12:56:48.615Z,33.88
2018-09-11T12:59:16.719Z,35.76
2018-09-11T13:01:44.828Z,33.65
2018-09-11T13:04:12.920Z,31.67
2018-09-11T13:06:41.031Z,32.17
2018-09-11T13:09:10.009Z,32.87
2018-09-11T13:11:38.076Z,32.02
2018-09-11T13:14:06.174Z,31.75
2018-09-11T13:16:34.286Z,31.43
2018-09-11T13:19:02.399Z,32.11
2018-09-11T13:21:30.524Z,31.09
2018-09-11T13:23:58.619Z,32.11
2018-09-11T13:26:26.755Z,32.08
2018-09-11T13:28:54.876Z,31.43
2018-09-11T13:31:23.124Z,30.94
2018-09-11T13:33:51.306Z,32.99
2018-09-11T13:36:19.375Z,32.22
2018-09-11T13:38:47.492Z,31.38
2018-09-11T13:41:15.602Z,31.76
2018-09-11T13:43:43.687Z,31.76
2018-09-11T13:46:11.852Z,31.28
2018-09-11T13:48:39.911Z,31.20
2018-09-11T13:51:08.379Z,30.31
2018-09-11T13:53:36.495Z,30.10
2018-09-11T13:56:07.643Z,31.02
2018-09-11T22:02:36.845Z,70.30
2018-09-11T22:05:04.973Z,70.57
2018-09-11T22:07:33.041Z,69.77
2018-09-11T22:10:01.196Z,69.67
2018-09-11T22:12:30.239Z,69.17
2018-09-11T22:14:58.326Z,70.89
2018-09-11T22:17:26.415Z,70.49
2018-09-11T22:19:54.490Z,71.49
2018-09-11T22:22:22.568Z,71.32
2018-09-11T22:24:50.658Z,71.27
2018-09-11T22:27:18.830Z,70.92
2018-09-11T22:29:46.938Z,71.57
2018-09-11T22:32:15.040Z,71.53
2018-09-11T22:34:43.163Z,70.93
2018-09-11T22:37:11.285Z,70.87
2018-09-11T22:39:39.529Z,70.55
2018-09-11T22:42:07.655Z,71.31
2018-09-11T22:44:35.756Z,71.44
2018-09-11T22:47:03.823Z,71.75
2018-09-11T22:49:31.907Z,72.02
2018-09-11T22:51:59.986Z,73.52
2018-09-11T22:54:28.099Z,73.75
2018-09-11T22:56:56.227Z,73.93
2018-09-11T22:59:24.597Z,74.81
2018-09-11T23:01:52.679Z,75.08
2018-09-11T23:04:20.752Z,75.23
2018-09-11T23:06:48.872Z,74.84
2018-09-11T23:09:16.939Z,74.67
2018-09-11T23:11:45.017Z,75.17
2018-09-11T23:14:13.107Z,75.86
2018-09-11T23:16:41.191Z,76.35
2018-09-11T23:19:09.261Z,75.83
2018-09-11T23:21:37.355Z,75.57
2018-09-11T23:24:05.448Z,75.11
2018-09-11T23:26:33.542Z,75.10
2018-09-11T23:29:02.650Z,74.74
2018-09-11T23:31:30.754Z,75.49
2018-09-11T23:33:58.815Z,75.39
2018-09-11T23:36:26.969Z,75.03
2018-09-11T23:38:55.088Z,75.62
2018-09-11T23:41:23.169Z,75.58
2018-09-11T23:43:51.267Z,75.50
2018-09-11T23:46:19.364Z,75.64
2018-09-11T23:48:47.504Z,76.00
2018-09-11T23:51:15.588Z,76.66
2018-09-11T23:53:43.703Z,76.28
2018-09-11T23:56:11.795Z,76.59
2018-09-11T23:58:39.922Z,76.37
